MSC Vega — D5BE4 — position and weather

sailwx.info

Track history (hours):
 
Tides and Currents Weather Stations Pressure Air Temp Water Temp Dewpoint Dewpoint Depression Visibility Wind Speed Wind Dir Waves Ship Positions

MSC Vega

Last reported at 2016-Sep-21 16:33 UTC. Time now 2016-Sep-28 18:47 UTC.
Position N 31°13' E 032°21'.

Length 366 m; draft 14.5 m.

Type: Ship (hazmat cat A). MMSI: 636015506.

Date/timePositionNaut miles runAvg speedWind from/ knotsBaromVisibWave heightAir tempDewpointWater temp
2016-Sep-21 16:33N 31°13' E 032°21'15 2.2
2016-Sep-21 09:28N 31°27' E 032°26'1 0.5
2016-Sep-21 08:27N 31°28' E 032°27'2 0.6
2016-Sep-21 05:34N 31°27' E 032°25'3818.1
2016-Sep-21 03:28N 31°49' E 031°49'1920.9
2016-Sep-21 02:33N 31°56' E 031°28'83620.3
2016-Sep-19 09:26N 37°42' E 016°01'2714.5
2016-Sep-19 07:34N 38°01' E 015°35'1514.7
2016-Sep-19 06:33N 38°15' E 015°38'17 5.6
2016-Sep-19 03:28N 38°27' E 015°54'0 0.0
2016-Sep-19 02:31N 38°27' E 015°54'0 0.0
2016-Sep-19 00:31N 38°27' E 015°54'0 0.0
2016-Sep-18 19:31N 38°27' E 015°54'0 0.0
2016-Sep-18 15:31N 38°27' E 015°54'0 0.0
2016-Sep-18 14:28N 38°27' E 015°54'0 0.0
2016-Sep-18 10:28N 38°27' E 015°54'0 0.0
2016-Sep-18 09:28N 38°27' E 015°54'0 0.0
2016-Sep-18 02:31N 38°27' E 015°54'0 0.0
2016-Sep-18 01:31N 38°27' E 015°54'0 0.0
2016-Sep-18 00:31N 38°27' E 015°54'0 0.0
2016-Sep-17 22:28N 38°27' E 015°54'1 0.7
2016-Sep-17 21:33N 38°27' E 015°54'4 4.2
2016-Sep-17 20:33N 38°29' E 015°49'2517.5
2016-Sep-17 19:08N 38°47' E 015°27'40715.9
2016-Sep-16 17:31N 44°06' E 009°51'0 0.0
2016-Sep-16 15:31N 44°06' E 009°51'0 0.0
2016-Sep-16 12:31N 44°06' E 009°51'0 0.0
2016-Sep-16 09:31N 44°06' E 009°51'0 0.0
2016-Sep-16 07:31N 44°06' E 009°51'0 0.0
2016-Sep-16 03:31N 44°06' E 009°51'0 0.0
2016-Sep-16 02:28N 44°06' E 009°51'0 0.2
2016-Sep-16 00:34N 44°06' E 009°51'6 3.2
2016-Sep-15 22:34N 44°00' E 009°54'0 0.0
2016-Sep-15 21:34N 44°00' E 009°54'1 1.5
2016-Sep-15 20:34N 43°59' E 009°53'2814.0
2016-Sep-15 18:33N 43°42' E 009°22'35014.0
2016-Sep-14 17:33N 40°39' E 002°39'1918.7
2016-Sep-14 16:33N 40°29' E 002°18'5719.0
2016-Sep-14 13:33N 39°59' E 001°15'7518.8
2016-Sep-14 09:33N 39°26' W 000°13'5 3.7
2016-Sep-14 08:13N 39°26' W 000°20'0 0.0
2016-Sep-14 07:31N 39°26' W 000°20'0 0.0
2016-Sep-14 06:22N 39°26' W 000°20'0 0.0
2016-Sep-14 03:28N 39°26' W 000°20'0 0.0
2016-Sep-13 22:31N 39°26' W 000°20'0 0.0
2016-Sep-13 20:31N 39°26' W 000°20'0 0.0
2016-Sep-13 17:22N 39°26' W 000°20'0 0.0
2016-Sep-13 16:28N 39°26' W 000°20'0 0.0
2016-Sep-13 11:31N 39°26' W 000°20'0 0.0
2016-Sep-13 09:31N 39°26' W 000°20'0 0.0
2016-Sep-13 07:13N 39°26' W 000°20'0 0.0
2016-Sep-13 06:31N 39°26' W 000°20'0 0.0
2016-Sep-13 04:31N 39°26' W 000°20'0 0.0
2016-Sep-13 02:31N 39°26' W 000°20'0 0.0
2016-Sep-12 23:31N 39°26' W 000°20'0 0.0
2016-Sep-12 21:31N 39°26' W 000°20'0 0.0
2016-Sep-12 19:31N 39°26' W 000°20'0 0.0
2016-Sep-12 17:31N 39°26' W 000°20'0 0.0
2016-Sep-12 13:19N 39°26' W 000°20'0 0.0
2016-Sep-12 12:31N 39°26' W 000°20'0 0.0
2016-Sep-12 11:16N 39°26' W 000°20'0 0.0
2016-Sep-12 07:16N 39°26' W 000°20'0 0.0
2016-Sep-12 06:19N 39°26' W 000°20'0 0.0
2016-Sep-12 01:28N 39°26' W 000°20'1 0.7
2016-Sep-11 23:33N 39°26' W 000°18'2 2.1
2016-Sep-11 22:33N 39°26' W 000°15'2 2.3
2016-Sep-11 21:33N 39°28' W 000°13'1110.7
2016-Sep-11 20:33N 39°35' W 000°03'3611.8
2016-Sep-11 17:32N 39°59' E 000°31'  
Track history (hours):
 
Tides and Currents Weather Stations Pressure Air Temp Water Temp Dewpoint Dewpoint Depression Visibility Wind Speed Wind Dir Waves Ship Positions

MSC Vega

Last reported at 2016-Sep-21 16:33 UTC. Time now 2016-Sep-28 18:47 UTC.
Position N 31°13' E 032°21'.

Length 366 m; draft 14.5 m.

Type: Ship (hazmat cat A). MMSI: 636015506.

Date/timePositionNaut miles runAvg speedWind from/ knotsBaromVisibWave heightAir tempDewpointWater temp
2016-Sep-21 16:33N 31°13' E 032°21'15 2.2
2016-Sep-21 09:28N 31°27' E 032°26'1 0.5
2016-Sep-21 08:27N 31°28' E 032°27'2 0.6
2016-Sep-21 05:34N 31°27' E 032°25'3818.1
2016-Sep-21 03:28N 31°49' E 031°49'1920.9
2016-Sep-21 02:33N 31°56' E 031°28'83620.3
2016-Sep-19 09:26N 37°42' E 016°01'2714.5
2016-Sep-19 07:34N 38°01' E 015°35'1514.7
2016-Sep-19 06:33N 38°15' E 015°38'17 5.6
2016-Sep-19 03:28N 38°27' E 015°54'0 0.0
2016-Sep-19 02:31N 38°27' E 015°54'0 0.0
2016-Sep-19 00:31N 38°27' E 015°54'0 0.0
2016-Sep-18 19:31N 38°27' E 015°54'0 0.0
2016-Sep-18 15:31N 38°27' E 015°54'0 0.0
2016-Sep-18 14:28N 38°27' E 015°54'0 0.0
2016-Sep-18 10:28N 38°27' E 015°54'0 0.0
2016-Sep-18 09:28N 38°27' E 015°54'0 0.0
2016-Sep-18 02:31N 38°27' E 015°54'0 0.0
2016-Sep-18 01:31N 38°27' E 015°54'0 0.0
2016-Sep-18 00:31N 38°27' E 015°54'0 0.0
2016-Sep-17 22:28N 38°27' E 015°54'1 0.7
2016-Sep-17 21:33N 38°27' E 015°54'4 4.2
2016-Sep-17 20:33N 38°29' E 015°49'2517.5
2016-Sep-17 19:08N 38°47' E 015°27'40715.9
2016-Sep-16 17:31N 44°06' E 009°51'0 0.0
2016-Sep-16 15:31N 44°06' E 009°51'0 0.0
2016-Sep-16 12:31N 44°06' E 009°51'0 0.0
2016-Sep-16 09:31N 44°06' E 009°51'0 0.0
2016-Sep-16 07:31N 44°06' E 009°51'0 0.0
2016-Sep-16 03:31N 44°06' E 009°51'0 0.0
2016-Sep-16 02:28N 44°06' E 009°51'0 0.2
2016-Sep-16 00:34N 44°06' E 009°51'6 3.2
2016-Sep-15 22:34N 44°00' E 009°54'0 0.0
2016-Sep-15 21:34N 44°00' E 009°54'1 1.5
2016-Sep-15 20:34N 43°59' E 009°53'2814.0
2016-Sep-15 18:33N 43°42' E 009°22'35014.0
2016-Sep-14 17:33N 40°39' E 002°39'1918.7
2016-Sep-14 16:33N 40°29' E 002°18'5719.0
2016-Sep-14 13:33N 39°59' E 001°15'7518.8
2016-Sep-14 09:33N 39°26' W 000°13'5 3.7
2016-Sep-14 08:13N 39°26' W 000°20'0 0.0
2016-Sep-14 07:31N 39°26' W 000°20'0 0.0
2016-Sep-14 06:22N 39°26' W 000°20'0 0.0
2016-Sep-14 03:28N 39°26' W 000°20'0 0.0
2016-Sep-13 22:31N 39°26' W 000°20'0 0.0
2016-Sep-13 20:31N 39°26' W 000°20'0 0.0
2016-Sep-13 17:22N 39°26' W 000°20'0 0.0
2016-Sep-13 16:28N 39°26' W 000°20'0 0.0
2016-Sep-13 11:31N 39°26' W 000°20'0 0.0
2016-Sep-13 09:31N 39°26' W 000°20'0 0.0
2016-Sep-13 07:13N 39°26' W 000°20'0 0.0
2016-Sep-13 06:31N 39°26' W 000°20'0 0.0
2016-Sep-13 04:31N 39°26' W 000°20'0 0.0
2016-Sep-13 02:31N 39°26' W 000°20'0 0.0
2016-Sep-12 23:31N 39°26' W 000°20'0 0.0
2016-Sep-12 21:31N 39°26' W 000°20'0 0.0
2016-Sep-12 19:31N 39°26' W 000°20'0 0.0
2016-Sep-12 17:31N 39°26' W 000°20'0 0.0
2016-Sep-12 13:19N 39°26' W 000°20'0 0.0
2016-Sep-12 12:31N 39°26' W 000°20'0 0.0
2016-Sep-12 11:16N 39°26' W 000°20'0 0.0
2016-Sep-12 07:16N 39°26' W 000°20'0 0.0
2016-Sep-12 06:19N 39°26' W 000°20'0 0.0
2016-Sep-12 01:28N 39°26' W 000°20'1 0.7
2016-Sep-11 23:33N 39°26' W 000°18'2 2.1
2016-Sep-11 22:33N 39°26' W 000°15'2 2.3
2016-Sep-11 21:33N 39°28' W 000°13'1110.7
2016-Sep-11 20:33N 39°35' W 000°03'3611.8
2016-Sep-11 17:32N 39°59' E 000°31'  

Dump ship's entire track history